Scroll down
FLIGHT INFORMATION
American Airlines

AAL4201

At Arrival Gate

KAUS
 KORD
DATE: 2021-02-21
GATE: G3
GATE DEPARTURE: 17:13
TAKEOFF: 17:27
DATE: 2021-02-21
GATE: E4
LANDING: 19:14
GATE ARRIVAL: 19:25
FLIGHT DATA
Crew: 
Speed: 
496 kts
Altitude: 
41,007 ft
Stage Length: 
850.3 nm
Block Time: 
2.2 hrs
Flight Time: 
1.8 hrs
Fuel Used: 
27,353 lb
Cleared Route: KAUS WLMRT ELOEL KLNGR FUZ MLC SGF WELTS MCDEE CASHN VINCA MAROC KELTS FNBAR TRIDE SHAIN RAGSS JUMPN NUNWS RRUDA RW10C
TRACK DATA
50,000 ft 1,000 kts
AIRCRAFT INFO AND CUMULATIVE STATS
Aircraft Type: 
B772
Registration: 
SELCAL: 
BLEK
MSN/LN: 
32638 / 376
Operator: 
Total Flights: 
6
Total Block Time: 
20.3 hrs
Total Flight Time: 
18 hrs
Total Fuel Used: 
282,676 lb
DATALINK LOG | Newest first | Current as of: 2021-09-20 18:25:43
LABEL SEQUENCE CONTENT Dn/Up
QD272619:25 18.1▼ Dn
QC161619:14▼ Dn
5Z000521 FEB 21 18:58:42z / FLT DECK GOOD / ACF POS GOOD / GRND SERVICES GOOD / MAINT GOOD▼ Dn
GA0014GATE E4▲ Up
GR0004KORD 19:14 MAAS 00 YP/UM 01/02 WCHR/S/C 03/04/05 HI-VAL NO DIPL/VIP NO▼ Dn
UM2124765KORD ATIS - ORD ATIS INFO Y 1751Z. 16010KT 10SM BKN150 OVC200 01/M07 A3013 (THREE ZERO ONE THREE) RMK AO2 SLP212 4/016 933026 10006 21072 58032. ARR EXP VECTORS ILS PRM RWY 10C APCH, ILS PRM Y RY 10R APCH. CTN RY 10R LOC IS OFFSET 2.5 DEGREES, VISUAL APCH RWY 9L. SIMUL APCHS IN USE. READBACK ALL RWY HOLD SHORT INSTRUCTIONS. DEPS EXP RWYS 9C FROM F F 9200 FT AVL, 10L FROM DD. 10,093 FT AVBL. NOTAMS... RWY 4L, 22R CLSD, RWY 9R, 27L CLSD. PILOTS USE CTN FOR BIRD ACTIVITY IN THE VICINITY OF THE ARPT. USE CAUTION FOR MEN AND EQUIP AT NUMEROUS SITES ON THE FIELD. CENTRAL DEICING FACILITY PROCEDURES IN EFFECT.. WHEN READY TO TAXI CONTACT GND METERING ON FREQ 121.67. ...ADVS YOU HAVE INFO Y.▲ Up
DM794755 ATIS KORD A▼ Dn
QB284317:27▼ Dn
2U1815KAUS 211653Z 20018G29KT 10SM BKN028 20/11 A3007 RMK AO2 PK WND 19029/1653 SLP180 T02000111 $▲ Up
2S1934KAUS▼ Dn
QA153017:13 45.4▼ Dn
A30126CLEARED TO KORD VIA ELOEL2 KLNGR FUZ MLC SGF WELTS SHAIN2. SQUAWK 3440.▲ Up
5U0047KORD 212058Z 16015G26KT 10SM OVC100 M03/M08 A3020▲ Up
2U0044KAUS 211553Z 19015G20KT 10SM BKN033 16/10 A3008 RMK AO2 SLP186 T01610100 $▲ Up
5S0124KORD▼ Dn
2S0124KAUS▼ Dn
Q00016[LINK ACK]▲ Up
Q00016[LINK TEST]▼ Dn


AIRCRAFT HISTORY
FLIGHT DATE FLIGHT NO. ORIGIN DESTINATION CLEARED ROUTE BLOCK TIME FLIGHT TIME FUEL USED PILOT
2021-04-24AAL314KMIA KLAX KMIA SENOY CIMBA FORKK BORLE MEAGN WINCO CHRRI DOLIE SRQ HRV KH03I LFK KF12C ABI TCS KA21Q ESTWD MCQWN MDLER MNROE HLYWD BRUEN AVATR DAAAY WADUP NEILE SEAVU SHELL RW25R5.8 hrs5.2 hrs83,880 lbDouglas Morlan
2021-04-24AAL424KDEN KMIA KDEN SHAYK BVO RZC LIT MGM ACORI BULZI SNAPY NICKI BITNY ENDEW JUULI KMIA3.4 hrs3.1 hrs47,816 lbDouglas Morlan
2021-03-13AAL267KBOS KDEN KBOS TJAYY BOATT HEARR MARBB HYLND HANAA ARNII GOATR AHPAH KELTI CFQHD AGDOX OMRAK CFRCN HOCKE MONEE DBQ CAPPR JORDY TODDO OBH BRWRY DUNKL KOLSH PLZNR LAWGR PPINT BURRP YUPEE FFFAT DOGGG DORRY RW35R4.5 hrs4.2 hrs63,697 lbPete L.
2021-02-21AAL4756KORD KBOS KORD EBAKE WISMO POSTS PADDE SVM DKK PONCT STOLI MNSTA SEETS DUBLE BASEZ JFUND AUTUM WINTA HRRIS SPYSD REVER SEHAG LONER RW272.1 hrs1.6 hrs25,273 lbGeorge
2021-02-21AAL4201KAUS KORD KAUS WLMRT ELOEL KLNGR FUZ MLC SGF WELTS MCDEE CASHN VINCA MAROC KELTS FNBAR TRIDE SHAIN RAGSS JUMPN NUNWS RRUDA RW10C2.2 hrs1.8 hrs27,353 lbGeorge
2021-02-21AAL519KLAS KAUS KLAS INW CNX KA21W KF15Y DILLO KAUS2.4 hrs2 hrs34,657 lbChemtrails